Time;durP1;ratioP1;P1;durP2;ratioP2;P2;SDS_P1;SDS_P2;PMS_P1;PMS_P2;Temp;Humidity;BMP_temperature;BMP_pressure;BME280_temperature;BME280_humidity;BME280_pressure;Samples;Min_cycle;Max_cycle;Signal;HPM_P1;HPM_P2
2021/05/04 00:01:14;;;;;;;14.20;11.10;;;20.60;67.50;;;;;;4160411;28;20105;-59
2021/05/04 00:03:17;;;;;;;14.05;12.57;;;20.60;67.60;;;;;;4156451;28;20160;-61
2021/05/04 00:05:19;;;;;;;14.15;12.75;;;20.60;67.60;;;;;;4159902;28;20033;-60
2021/05/04 00:07:21;;;;;;;14.55;12.57;;;20.60;67.50;;;;;;4163528;28;20120;-58
2021/05/04 00:09:23;;;;;;;16.63;13.25;;;20.60;67.60;;;;;;4158247;28;20104;-57
2021/05/04 00:11:26;;;;;;;13.07;11.50;;;20.60;67.60;;;;;;4169022;28;20060;-59
2021/05/04 00:13:28;;;;;;;14.27;12.18;;;20.60;67.70;;;;;;4161015;28;20043;-58
2021/05/04 00:15:32;;;;;;;15.48;12.85;;;20.60;67.70;;;;;;4162776;28;20494;-59
2021/05/04 00:17:34;;;;;;;16.23;12.60;;;20.70;67.70;;;;;;4162164;28;20029;-59
2021/05/04 00:19:37;;;;;;;14.25;12.38;;;20.70;67.70;;;;;;4159410;28;20475;-59
2021/05/04 00:21:40;;;;;;;14.40;12.50;;;20.70;67.70;;;;;;4165840;28;20519;-60
2021/05/04 00:23:42;;;;;;;14.95;13.05;;;20.70;67.80;;;;;;4157015;28;20098;-61
2021/05/04 00:25:44;;;;;;;16.45;12.75;;;20.70;67.80;;;;;;4157240;28;20032;-60
2021/05/04 00:27:46;;;;;;;14.80;11.75;;;20.70;67.70;;;;;;4158798;28;20021;-63
2021/05/04 00:29:48;;;;;;;16.15;12.05;;;20.70;67.60;;;;;;4165845;28;20087;-62
2021/05/04 00:31:51;;;;;;;14.13;12.70;;;20.70;67.70;;;;;;4153773;28;20470;-63
2021/05/04 00:33:54;;;;;;;16.17;12.65;;;20.70;67.60;;;;;;4168048;28;20108;-63
2021/05/04 00:35:56;;;;;;;13.07;11.75;;;20.70;67.70;;;;;;4155575;28;20366;-67
2021/05/04 00:37:58;;;;;;;15.63;11.65;;;20.60;67.70;;;;;;4163797;28;20530;-67
2021/05/04 00:40:00;;;;;;;15.32;12.48;;;20.70;67.70;;;;;;4153037;28;20025;-67
2021/05/04 00:42:03;;;;;;;14.00;11.60;;;20.60;67.70;;;;;;4162513;28;20049;-65
2021/05/04 00:44:06;;;;;;;12.38;10.95;;;20.60;67.70;;;;;;4159644;28;20723;-60
2021/05/04 00:46:08;;;;;;;15.43;11.48;;;20.60;67.70;;;;;;4147550;28;20121;-62
2021/05/04 00:48:10;;;;;;;17.70;11.52;;;20.70;68.00;;;;;;4162079;28;20347;-62
2021/05/04 00:50:13;;;;;;;15.75;11.57;;;20.70;68.00;;;;;;4159624;28;20039;-60
2021/05/04 00:52:16;;;;;;;15.60;11.10;;;20.70;68.10;;;;;;4159846;28;20118;-57
2021/05/04 00:54:18;;;;;;;15.50;13.20;;;20.70;68.10;;;;;;4161054;28;20128;-59
2021/05/04 00:56:23;;;;;;;15.80;11.30;;;20.70;68.10;;;;;;4163518;28;20273;-60
2021/05/04 00:58:25;;;;;;;15.35;10.88;;;20.70;68.10;;;;;;4162058;28;20029;-60
2021/05/04 01:00:28;;;;;;;14.75;11.85;;;20.70;68.20;;;;;;4159566;28;20040;-60
2021/05/04 01:02:31;;;;;;;16.55;11.82;;;20.60;68.10;;;;;;4158027;28;20085;-61
2021/05/04 01:04:33;;;;;;;14.05;11.55;;;20.60;68.60;;;;;;4165621;28;20100;-60
2021/05/04 01:06:36;;;;;;;15.30;11.60;;;20.60;67.90;;;;;;4162975;28;20021;-59
2021/05/04 01:08:38;;;;;;;16.02;11.82;;;20.60;68.10;;;;;;4167109;28;20044;-54
2021/05/04 01:10:40;;;;;;;16.67;11.98;;;20.60;68.20;;;;;;4155890;28;20041;-60
2021/05/04 01:12:43;;;;;;;16.38;11.18;;;20.70;68.30;;;;;;4168141;28;20044;-58
2021/05/04 01:14:45;;;;;;;14.68;11.35;;;20.60;68.50;;;;;;4159733;28;20056;-56
2021/05/04 01:16:50;;;;;;;14.20;10.88;;;20.70;69.00;;;;;;4167747;28;20411;-58
2021/05/04 01:18:53;;;;;;;12.25;10.55;;;20.70;69.20;;;;;;4154347;28;20026;-59
2021/05/04 01:20:55;;;;;;;13.55;11.35;;;20.70;69.20;;;;;;4161684;28;20072;-54
2021/05/04 01:22:57;;;;;;;12.98;10.68;;;20.70;69.10;;;;;;4159966;28;20057;-58
2021/05/04 01:25:00;;;;;;;14.95;11.52;;;20.80;69.10;;;;;;4161672;28;20139;-55
2021/05/04 01:27:02;;;;;;;13.50;11.20;;;20.80;69.10;;;;;;4158282;28;20033;-56
2021/05/04 01:29:04;;;;;;;11.95;10.75;;;20.80;69.00;;;;;;4158055;28;20475;-51
2021/05/04 01:31:06;;;;;;;12.07;10.67;;;20.70;69.00;;;;;;4164426;28;20025;-55
2021/05/04 01:33:09;;;;;;;13.75;11.05;;;20.80;69.00;;;;;;4162755;28;20458;-53
2021/05/04 01:35:12;;;;;;;11.57;10.43;;;20.80;68.90;;;;;;4163295;28;20036;-58
2021/05/04 01:37:15;;;;;;;12.60;10.18;;;20.80;68.90;;;;;;4166472;28;20548;-59
2021/05/04 01:39:17;;;;;;;11.48;10.32;;;20.80;68.90;;;;;;4162864;28;20048;-59
2021/05/04 01:41:19;;;;;;;11.32;9.90;;;20.80;68.80;;;;;;4156451;28;20064;-59
2021/05/04 01:43:21;;;;;;;11.20;10.00;;;20.80;68.80;;;;;;4163420;28;20096;-58
2021/05/04 01:45:24;;;;;;;12.73;9.50;;;20.80;68.80;;;;;;4163709;28;20062;-53
2021/05/04 01:47:26;;;;;;;10.35;9.25;;;20.80;68.80;;;;;;4165773;28;20041;-57
2021/05/04 01:49:28;;;;;;;11.27;9.85;;;20.80;68.70;;;;;;4157333;28;20080;-56
2021/05/04 01:51:32;;;;;;;11.77;10.57;;;20.80;68.70;;;;;;4172402;28;20085;-57
2021/05/04 01:53:34;;;;;;;12.52;9.45;;;20.80;68.60;;;;;;4160649;28;20510;-57
2021/05/04 01:55:36;;;;;;;10.90;9.80;;;20.80;68.60;;;;;;4165236;28;20090;-58
2021/05/04 01:57:38;;;;;;;11.88;9.45;;;20.90;68.60;;;;;;4159339;28;20441;-58
2021/05/04 01:59:40;;;;;;;11.68;9.80;;;20.90;69.20;;;;;;4151963;28;20477;-57
2021/05/04 02:01:42;;;;;;;10.75;9.27;;;20.90;68.60;;;;;;4163071;28;20124;-57
2021/05/04 02:03:45;;;;;;;11.50;10.07;;;20.90;68.60;;;;;;4162917;28;20060;-56
2021/05/04 02:05:48;;;;;;;11.85;9.45;;;20.90;68.60;;;;;;4162291;28;20388;-58
2021/05/04 02:07:50;;;;;;;12.30;9.82;;;20.90;68.60;;;;;;4156786;28;20033;-56
2021/05/04 02:09:52;;;;;;;10.23;9.10;;;20.90;68.60;;;;;;4167224;28;20546;-57
2021/05/04 02:11:54;;;;;;;10.57;8.88;;;20.90;68.60;;;;;;4157169;28;20123;-55
2021/05/04 02:13:56;;;;;;;12.02;9.57;;;20.90;68.50;;;;;;4164481;28;20734;-56
2021/05/04 02:15:59;;;;;;;11.82;9.93;;;20.90;68.60;;;;;;4158914;28;20041;-60
2021/05/04 02:18:01;;;;;;;12.00;9.55;;;20.90;68.50;;;;;;4162134;28;20086;-62
2021/05/04 02:20:04;;;;;;;14.38;9.77;;;20.90;68.50;;;;;;4156085;28;20037;-62
2021/05/04 02:22:07;;;;;;;10.95;9.40;;;20.90;68.40;;;;;;4163370;28;20034;-62
2021/05/04 02:24:09;;;;;;;11.02;9.30;;;20.90;68.50;;;;;;4162385;28;20474;-63
2021/05/04 02:26:12;;;;;;;10.90;9.27;;;20.80;68.30;;;;;;4162621;28;21272;-61
2021/05/04 02:28:14;;;;;;;10.43;9.32;;;20.90;68.40;;;;;;4164170;28;20009;-61
2021/05/04 02:30:17;;;;;;;11.48;9.57;;;20.90;68.40;;;;;;4165888;28;20479;-62
2021/05/04 02:32:19;;;;;;;12.50;9.60;;;20.90;68.40;;;;;;4169325;28;20046;-63
2021/05/04 02:34:21;;;;;;;15.07;9.60;;;20.90;68.40;;;;;;4163895;28;20083;-52
2021/05/04 02:36:23;;;;;;;11.50;9.43;;;20.80;68.50;;;;;;4167205;28;20707;-55
2021/05/04 02:38:25;;;;;;;12.27;10.68;;;20.90;68.80;;;;;;4158518;28;20113;-60
2021/05/04 02:40:27;;;;;;;14.18;11.05;;;20.90;68.50;;;;;;4166479;28;20037;-60
2021/05/04 02:42:29;;;;;;;16.10;10.52;;;20.80;68.50;;;;;;4161983;28;20041;-59
2021/05/04 02:44:32;;;;;;;18.80;13.85;;;20.80;68.60;;;;;;4166431;28;20414;-58
2021/05/04 02:46:35;;;;;;;16.02;14.38;;;20.80;68.30;;;;;;4155928;28;20044;-55
2021/05/04 02:48:42;;;;;;;17.13;15.32;;;20.80;68.30;;;;;;4170336;28;20078;-59
2021/05/04 02:50:45;;;;;;;17.90;16.10;;;20.80;68.20;;;;;;4155387;28;20060;-56
2021/05/04 02:52:47;;;;;;;18.13;16.23;;;20.80;68.20;;;;;;4160300;28;20084;-58
2021/05/04 02:54:49;;;;;;;18.63;16.73;;;20.80;68.10;;;;;;4167114;28;20063;-58
2021/05/04 02:56:51;;;;;;;18.10;16.20;;;20.80;68.10;;;;;;4166538;28;20090;-58
2021/05/04 02:58:53;;;;;;;17.90;16.00;;;20.80;68.00;;;;;;4158944;28;20040;-59
2021/05/04 03:00:56;;;;;;;17.77;15.88;;;20.80;68.00;;;;;;4162826;28;20477;-58
2021/05/04 03:02:59;;;;;;;17.60;15.80;;;20.80;68.10;;;;;;4169168;28;20310;-58
2021/05/04 03:05:01;;;;;;;18.60;16.65;;;20.70;68.10;;;;;;4168431;28;20475;-59
2021/05/04 03:07:03;;;;;;;19.25;17.27;;;20.70;68.10;;;;;;4172192;28;20184;-59
2021/05/04 03:09:06;;;;;;;17.48;15.68;;;20.70;68.10;;;;;;4163194;28;20072;-57
2021/05/04 03:11:09;;;;;;;16.63;14.75;;;20.70;68.10;;;;;;4167192;28;20043;-59
2021/05/04 03:13:11;;;;;;;18.30;16.38;;;20.70;68.10;;;;;;4160763;28;20021;-59
2021/05/04 03:15:13;;;;;;;17.85;16.02;;;20.70;68.10;;;;;;4160170;28;20453;-58
2021/05/04 03:17:16;;;;;;;16.70;15.17;;;20.70;68.20;;;;;;4166826;28;20037;-58
2021/05/04 03:19:18;;;;;;;17.00;15.30;;;20.70;68.10;;;;;;4165244;28;20017;-59
2021/05/04 03:21:20;;;;;;;18.40;16.42;;;20.70;68.10;;;;;;4166797;28;20494;-58
2021/05/04 03:23:23;;;;;;;17.40;15.60;;;20.70;68.10;;;;;;4168648;28;20056;-58
2021/05/04 03:25:25;;;;;;;;;;;20.70;68.10;;;;;;4162264;28;20029;-58
2021/05/04 03:27:27;;;;;;;17.48;15.32;;;20.70;68.70;;;;;;4165890;28;20011;-58
2021/05/04 03:29:29;;;;;;;18.17;15.73;;;20.70;68.10;;;;;;4164798;28;20425;-59
2021/05/04 03:31:32;;;;;;;18.80;16.77;;;20.70;67.90;;;;;;4160179;28;20526;-59
2021/05/04 03:33:34;;;;;;;18.50;16.42;;;20.70;67.60;;;;;;4167652;28;20067;-60
2021/05/04 03:35:36;;;;;;;19.00;17.08;;;20.70;67.50;;;;;;4156441;28;20141;-60
2021/05/04 03:37:39;;;;;;;18.17;16.27;;;20.60;67.40;;;;;;4166439;28;20037;-60
2021/05/04 03:39:41;;;;;;;16.55;14.98;;;20.60;67.40;;;;;;4157959;28;20436;-60
2021/05/04 03:41:43;;;;;;;17.10;14.93;;;20.60;67.60;;;;;;4158673;28;20512;-60
2021/05/04 03:43:45;;;;;;;17.65;14.00;;;20.60;67.90;;;;;;4163116;28;20123;-60
2021/05/04 03:45:47;;;;;;;15.70;13.95;;;20.60;68.00;;;;;;4170623;28;20033;-60
2021/05/04 03:47:50;;;;;;;16.00;14.30;;;20.60;68.00;;;;;;4158356;28;20395;-60
2021/05/04 03:49:53;;;;;;;15.95;14.35;;;20.60;68.50;;;;;;4160594;28;20457;-60
2021/05/04 03:51:55;;;;;;;15.60;13.70;;;20.60;68.50;;;;;;4168574;28;20029;-61
2021/05/04 03:53:57;;;;;;;13.90;12.30;;;20.60;68.70;;;;;;4154488;28;20052;-62
2021/05/04 03:55:59;;;;;;;15.00;11.52;;;20.60;68.80;;;;;;4165043;28;20157;-59
2021/05/04 03:58:01;;;;;;;12.93;11.40;;;20.60;68.90;;;;;;4163177;28;20030;-60
2021/05/04 04:00:06;;;;;;;12.60;11.40;;;20.60;69.10;;;;;;4163480;28;20332;-59
2021/05/04 04:02:08;;;;;;;12.60;10.15;;;20.60;69.10;;;;;;4151541;28;20053;-60
2021/05/04 04:04:10;;;;;;;13.93;9.68;;;20.60;69.20;;;;;;4156460;28;20467;-61
2021/05/04 04:06:12;;;;;;;11.75;9.80;;;20.60;69.30;;;;;;4158965;28;20049;-60
2021/05/04 04:08:15;;;;;;;13.00;9.60;;;20.60;69.40;;;;;;4163764;28;20076;-60
2021/05/04 04:10:17;;;;;;;10.27;9.27;;;20.70;69.40;;;;;;4162195;28;20032;-66
2021/05/04 04:12:19;;;;;;;11.80;10.32;;;20.70;69.50;;;;;;4156559;28;20116;-59
2021/05/04 04:14:21;;;;;;;12.70;11.40;;;20.70;69.10;;;;;;4159502;28;20072;-58
2021/05/04 04:16:23;;;;;;;12.75;11.55;;;20.60;69.20;;;;;;4156654;28;20371;-58
2021/05/04 04:18:25;;;;;;;14.05;12.15;;;20.60;69.30;;;;;;4162349;28;20169;-58
2021/05/04 04:20:27;;;;;;;14.88;13.32;;;20.60;69.30;;;;;;4162693;28;21053;-59
2021/05/04 04:22:29;;;;;;;13.23;11.82;;;20.60;69.20;;;;;;4159900;28;20040;-58
2021/05/04 04:24:31;;;;;;;16.98;13.25;;;20.60;69.40;;;;;;4157589;28;20561;-59
2021/05/04 04:26:34;;;;;;;14.13;12.65;;;20.60;69.20;;;;;;4160969;28;20067;-58
2021/05/04 04:28:36;;;;;;;16.83;12.45;;;20.60;69.70;;;;;;4159694;28;20279;-59
2021/05/04 04:30:38;;;;;;;12.45;10.73;;;20.60;70.00;;;;;;4165954;28;20032;-59
2021/05/04 04:32:40;;;;;;;12.98;10.90;;;20.60;70.10;;;;;;4157016;28;20033;-59
2021/05/04 04:34:42;;;;;;;12.32;9.75;;;20.60;70.20;;;;;;4154821;28;20269;-59
2021/05/04 04:36:44;;;;;;;15.43;10.20;;;20.60;70.10;;;;;;4157288;28;20471;-62
2021/05/04 04:38:47;;;;;;;11.63;9.15;;;20.60;69.90;;;;;;4161422;28;20301;-59
2021/05/04 04:40:49;;;;;;;12.23;9.38;;;20.60;69.70;;;;;;4153772;28;20300;-62
2021/05/04 04:42:52;;;;;;;12.77;9.17;;;20.60;69.50;;;;;;4158308;28;20584;-62
2021/05/04 04:44:54;;;;;;;10.52;8.20;;;20.60;69.40;;;;;;4159482;28;20601;-62
2021/05/04 04:46:56;;;;;;;9.82;8.55;;;20.60;69.40;;;;;;4160681;28;20489;-61
2021/05/04 04:48:59;;;;;;;9.75;8.25;;;20.60;69.50;;;;;;4160849;28;20324;-62
2021/05/04 04:51:01;;;;;;;11.13;7.97;;;20.60;69.70;;;;;;4159341;28;20113;-60
2021/05/04 04:53:04;;;;;;;9.88;8.32;;;20.60;69.70;;;;;;4157415;28;20655;-61
2021/05/04 04:55:06;;;;;;;10.85;7.88;;;20.60;69.90;;;;;;4168176;28;20078;-61
2021/05/04 04:57:09;;;;;;;8.75;7.85;;;20.60;70.10;;;;;;4157394;28;20099;-63
2021/05/04 04:59:11;;;;;;;10.55;7.63;;;20.60;70.10;;;;;;4160007;28;20498;-62
2021/05/04 05:01:13;;;;;;;8.73;7.80;;;20.60;70.10;;;;;;4155571;28;20032;-61
2021/05/04 05:03:15;;;;;;;10.43;7.55;;;20.60;70.10;;;;;;4157059;28;20065;-65
2021/05/04 05:05:17;;;;;;;9.35;7.43;;;20.60;70.20;;;;;;4153628;28;20128;-63
2021/05/04 05:07:19;;;;;;;8.43;7.53;;;20.60;70.20;;;;;;4155842;28;20550;-63
2021/05/04 05:09:22;;;;;;;8.13;7.30;;;20.60;70.20;;;;;;4156707;28;20033;-60
2021/05/04 05:11:24;;;;;;;8.02;7.22;;;20.60;70.30;;;;;;4147926;28;20049;-60
2021/05/04 05:13:26;;;;;;;10.25;7.60;;;20.60;70.20;;;;;;4154451;28;20038;-56
2021/05/04 05:15:29;;;;;;;11.30;7.13;;;20.60;70.40;;;;;;4155595;28;20094;-60
2021/05/04 05:17:32;;;;;;;10.00;7.05;;;20.60;70.40;;;;;;4152250;28;20091;-59
2021/05/04 05:19:34;;;;;;;9.23;7.07;;;20.60;70.50;;;;;;4150479;28;20037;-58
2021/05/04 05:21:37;;;;;;;8.63;7.13;;;20.60;70.30;;;;;;4149192;28;20056;-56
2021/05/04 05:23:39;;;;;;;10.35;7.53;;;20.60;70.30;;;;;;4153191;28;20269;-59
2021/05/04 05:25:42;;;;;;;9.98;7.32;;;20.60;70.30;;;;;;4164038;28;20047;-57
2021/05/04 05:27:44;;;;;;;14.07;7.47;;;20.60;70.30;;;;;;4147748;28;20183;-57
2021/05/04 05:29:46;;;;;;;10.55;7.38;;;20.60;70.70;;;;;;4159845;28;20036;-59
2021/05/04 05:31:48;;;;;;;9.98;7.45;;;20.70;70.70;;;;;;4150501;28;20049;-57
2021/05/04 05:33:50;;;;;;;8.88;7.97;;;20.70;70.60;;;;;;4164951;28;20024;-60
2021/05/04 05:35:52;;;;;;;9.98;7.70;;;20.70;70.50;;;;;;4157166;28;20088;-58
2021/05/04 05:37:55;;;;;;;10.07;7.63;;;20.70;70.50;;;;;;4155217;28;20529;-57
2021/05/04 05:39:57;;;;;;;10.38;8.20;;;20.70;70.40;;;;;;4153242;28;20113;-57
2021/05/04 05:41:59;;;;;;;11.70;7.88;;;20.70;70.40;;;;;;4158885;28;20054;-60
2021/05/04 05:44:01;;;;;;;11.20;8.25;;;20.70;70.60;;;;;;4151704;28;20490;-62
2021/05/04 05:46:03;;;;;;;9.13;8.07;;;20.70;70.20;;;;;;4153322;28;20426;-60
2021/05/04 05:48:05;;;;;;;10.73;7.83;;;20.70;70.20;;;;;;4151214;28;20038;-61
2021/05/04 05:50:08;;;;;;;13.63;9.05;;;20.70;70.10;;;;;;4149274;28;20036;-56
2021/05/04 05:52:10;;;;;;;12.80;8.77;;;20.70;70.20;;;;;;4163020;28;20248;-58
2021/05/04 05:54:13;;;;;;;11.10;8.02;;;20.60;70.40;;;;;;4155172;28;20037;-58
2021/05/04 05:56:15;;;;;;;10.45;7.25;;;20.70;70.50;;;;;;4160420;28;20059;-59
2021/05/04 05:58:17;;;;;;;15.38;7.28;;;20.70;70.40;;;;;;4151818;28;20116;-62
2021/05/04 06:00:19;;;;;;;9.57;8.20;;;20.70;70.20;;;;;;4157075;28;20464;-61
2021/05/04 06:02:22;;;;;;;20.38;9.82;;;20.70;70.00;;;;;;4155717;28;20087;-59
2021/05/04 06:04:24;;;;;;;19.85;9.23;;;20.70;70.10;;;;;;4158609;28;20029;-59
2021/05/04 06:06:27;;;;;;;18.48;7.75;;;20.70;70.10;;;;;;4155243;28;20036;-59
2021/05/04 06:08:29;;;;;;;10.50;6.80;;;20.70;70.10;;;;;;4155489;28;20380;-58
2021/05/04 06:10:31;;;;;;;14.60;7.90;;;20.70;70.10;;;;;;4154513;28;20471;-60
2021/05/04 06:12:33;;;;;;;14.48;7.45;;;20.70;70.10;;;;;;4152488;28;20451;-60
2021/05/04 06:14:36;;;;;;;11.98;6.68;;;20.70;70.10;;;;;;4166135;28;20425;-59
2021/05/04 06:16:38;;;;;;;10.52;7.03;;;20.70;70.20;;;;;;4156647;28;20053;-61
2021/05/04 06:18:40;;;;;;;10.02;6.10;;;20.60;70.10;;;;;;4160906;28;20936;-60
2021/05/04 06:20:42;;;;;;;11.20;6.50;;;20.60;70.20;;;;;;4162886;28;20222;-59
2021/05/04 06:22:44;;;;;;;7.75;5.60;;;20.60;70.20;;;;;;4155458;28;21669;-59
2021/05/04 06:24:46;;;;;;;14.73;6.43;;;20.60;70.30;;;;;;4151363;28;20116;-59
2021/05/04 06:26:48;;;;;;;6.80;5.53;;;20.60;70.40;;;;;;4153931;28;20048;-59
2021/05/04 06:28:51;;;;;;;9.52;6.03;;;20.60;70.40;;;;;;4150927;28;20405;-60
2021/05/04 06:30:53;;;;;;;7.73;5.87;;;20.60;70.50;;;;;;4159518;28;20060;-60
2021/05/04 06:32:56;;;;;;;8.85;5.88;;;20.60;70.60;;;;;;4155808;28;20044;-60
2021/05/04 06:34:58;;;;;;;9.03;6.07;;;20.60;70.70;;;;;;4162136;28;20033;-59
2021/05/04 06:37:00;;;;;;;8.35;5.80;;;20.60;70.70;;;;;;4154256;28;20648;-60
2021/05/04 06:39:03;;;;;;;8.05;6.05;;;20.60;70.70;;;;;;4151901;28;20041;-60
2021/05/04 06:41:05;;;;;;;9.60;5.15;;;20.60;70.70;;;;;;4150395;28;20134;-58
2021/05/04 06:43:07;;;;;;;6.43;5.13;;;20.60;70.70;;;;;;4154666;28;20414;-61
2021/05/04 06:45:10;;;;;;;8.15;5.88;;;20.60;70.80;;;;;;4156694;28;20058;-61
2021/05/04 06:47:12;;;;;;;8.27;5.85;;;20.60;70.80;;;;;;4154217;28;20037;-60
2021/05/04 06:49:14;;;;;;;8.07;5.43;;;20.60;71.40;;;;;;4160719;28;20338;-60
2021/05/04 06:51:16;;;;;;;9.75;5.20;;;20.50;70.80;;;;;;4147685;28;20552;-60
2021/05/04 06:53:18;;;;;;;6.85;5.72;;;20.50;70.80;;;;;;4154801;28;20426;-60
2021/05/04 06:55:21;;;;;;;7.90;5.45;;;20.50;70.90;;;;;;4151465;28;20459;-61
2021/05/04 06:57:24;;;;;;;7.38;5.65;;;20.50;70.90;;;;;;4154505;28;20028;-59
2021/05/04 06:59:26;;;;;;;;;;;20.50;70.90;;;;;;4151958;28;20037;-60
2021/05/04 07:01:28;;;;;;;7.15;5.88;;;20.50;70.90;;;;;;4154277;28;19912;-59
2021/05/04 07:03:30;;;;;;;7.20;5.10;;;20.50;71.20;;;;;;4153977;28;20122;-59
2021/05/04 07:05:32;;;;;;;10.70;6.85;;;20.50;71.20;;;;;;4152367;28;20049;-57
2021/05/04 07:07:35;;;;;;;9.70;6.90;;;20.50;71.20;;;;;;4151097;28;20168;-59
2021/05/04 07:09:37;;;;;;;8.02;6.28;;;20.50;71.40;;;;;;4152355;28;20029;-57
2021/05/04 07:11:39;;;;;;;9.25;6.68;;;20.50;71.40;;;;;;4151374;28;20188;-58
2021/05/04 07:13:43;;;;;;;8.60;7.07;;;20.50;71.40;;;;;;4162210;28;20170;-58
2021/05/04 07:15:46;;;;;;;14.18;7.78;;;20.50;71.40;;;;;;4157519;28;20052;-58
2021/05/04 07:17:48;;;;;;;7.18;6.40;;;20.50;71.30;;;;;;4155660;28;20737;-57
2021/05/04 07:19:53;;;;;;;10.40;6.97;;;20.50;71.40;;;;;;4154572;28;20036;-56
2021/05/04 07:21:56;;;;;;;12.52;7.15;;;20.50;71.50;;;;;;4165410;28;20029;-58
2021/05/04 07:23:58;;;;;;;12.15;8.18;;;20.50;71.60;;;;;;4163154;28;20132;-59
2021/05/04 07:26:00;;;;;;;14.50;9.32;;;20.60;71.60;;;;;;4164966;28;20136;-58
2021/05/04 07:28:03;;;;;;;13.70;9.98;;;20.50;71.60;;;;;;4167002;28;20032;-56
2021/05/04 07:30:06;;;;;;;12.02;10.02;;;20.50;71.50;;;;;;4171680;28;20053;-58
2021/05/04 07:32:09;;;;;;;12.40;10.80;;;20.50;71.30;;;;;;4159233;28;20055;-58
2021/05/04 07:34:12;;;;;;;15.35;11.27;;;20.50;71.30;;;;;;4160432;28;20120;-57
2021/05/04 07:36:14;;;;;;;12.43;11.18;;;20.50;71.40;;;;;;4158235;28;20119;-58
2021/05/04 07:38:17;;;;;;;13.05;11.75;;;20.50;70.90;;;;;;4160006;28;20103;-56
2021/05/04 07:40:19;;;;;;;13.27;11.95;;;20.50;71.30;;;;;;4168577;28;20048;-58
2021/05/04 07:42:21;;;;;;;12.48;11.18;;;20.50;71.60;;;;;;4167978;28;20067;-58
2021/05/04 07:44:23;;;;;;;13.57;12.02;;;20.50;71.40;;;;;;4164634;28;20036;-57
2021/05/04 07:46:25;;;;;;;12.27;11.10;;;20.50;71.20;;;;;;4159408;28;20804;-57
2021/05/04 07:48:28;;;;;;;12.05;10.77;;;20.40;71.20;;;;;;4162295;28;20036;-58
2021/05/04 07:50:32;;;;;;;12.45;11.20;;;20.40;71.20;;;;;;4165449;28;20260;-58
2021/05/04 07:52:34;;;;;;;13.20;11.07;;;20.40;71.30;;;;;;4164332;28;20508;-58
2021/05/04 07:54:37;;;;;;;13.00;11.68;;;20.40;71.00;;;;;;4162953;28;20128;-58
2021/05/04 07:56:39;;;;;;;13.57;11.40;;;20.40;71.10;;;;;;4165550;28;20052;-59
2021/05/04 07:58:42;;;;;;;16.08;11.32;;;20.40;71.20;;;;;;4158976;28;20136;-55
2021/05/04 08:00:44;;;;;;;12.77;10.95;;;20.40;71.50;;;;;;4162106;28;20321;-55
2021/05/04 08:02:46;;;;;;;12.60;10.52;;;20.40;72.00;;;;;;4155153;28;20116;-59
2021/05/04 08:04:48;;;;;;;12.45;10.63;;;20.40;72.10;;;;;;4157780;28;20088;-57
2021/05/04 08:06:50;;;;;;;16.92;10.27;;;20.40;72.20;;;;;;4154523;28;20376;-57
2021/05/04 08:08:53;;;;;;;10.70;9.20;;;20.40;72.30;;;;;;4162095;28;20056;-60
2021/05/04 08:10:55;;;;;;;11.55;10.35;;;20.40;72.30;;;;;;4156752;28;20037;-59
2021/05/04 08:12:57;;;;;;;12.60;9.85;;;20.40;72.30;;;;;;4159185;28;20029;-58
2021/05/04 08:14:59;;;;;;;10.68;9.13;;;20.40;72.40;;;;;;4161444;28;20037;-56
2021/05/04 08:17:01;;;;;;;12.35;8.50;;;20.40;72.30;;;;;;4152016;28;20062;-58
2021/05/04 08:19:04;;;;;;;10.35;8.00;;;20.40;72.30;;;;;;4160692;28;20124;-56
2021/05/04 08:21:06;;;;;;;14.38;8.60;;;20.40;72.30;;;;;;4152849;28;20067;-59
2021/05/04 08:23:09;;;;;;;11.55;8.73;;;20.40;72.20;;;;;;4152223;28;20402;-59
2021/05/04 08:25:11;;;;;;;11.57;9.35;;;20.40;72.20;;;;;;4156486;28;20033;-56
2021/05/04 08:27:13;;;;;;;9.40;8.50;;;20.40;72.20;;;;;;4155389;28;20494;-54
2021/05/04 08:29:15;;;;;;;11.77;9.68;;;20.40;72.20;;;;;;4156105;28;20528;-55
2021/05/04 08:31:17;;;;;;;10.63;8.73;;;20.40;72.20;;;;;;4156810;28;20091;-53
2021/05/04 08:33:20;;;;;;;17.55;9.55;;;20.40;72.10;;;;;;4157612;28;20134;-51
2021/05/04 08:35:24;;;;;;;9.57;8.50;;;20.40;72.10;;;;;;4152697;28;20573;-54
2021/05/04 08:37:26;;;;;;;10.70;8.80;;;20.40;72.10;;;;;;4154746;28;20120;-53
2021/05/04 08:39:28;;;;;;;9.20;8.30;;;20.40;72.10;;;;;;4159242;28;20114;-56
2021/05/04 08:41:32;;;;;;;9.60;8.00;;;20.40;72.10;;;;;;4149685;28;20045;-49
2021/05/04 08:43:35;;;;;;;9.02;8.00;;;20.40;72.10;;;;;;4157098;28;20472;-48
2021/05/04 08:45:38;;;;;;;10.93;8.75;;;20.40;72.10;;;;;;4150629;28;20059;-57
2021/05/04 08:47:42;;;;;;;10.32;8.05;;;20.40;72.10;;;;;;4157928;28;20105;-57
2021/05/04 08:49:46;;;;;;;10.02;8.27;;;20.40;72.10;;;;;;4153528;28;20162;-54
2021/05/04 08:51:50;;;;;;;;;;;20.40;72.20;;;;;;4158876;28;20025;-59
2021/05/04 08:53:53;;;;;;;8.50;7.60;;;20.40;72.10;;;;;;4156409;28;19917;-58
2021/05/04 08:55:55;;;;;;;10.45;8.15;;;20.40;72.10;;;;;;4155122;28;20050;-59
2021/05/04 08:57:57;;;;;;;8.55;7.70;;;20.40;72.10;;;;;;4156427;28;20025;-59
2021/05/04 08:59:59;;;;;;;9.32;7.78;;;20.40;72.00;;;;;;4156071;28;20094;-53
2021/05/04 09:02:01;;;;;;;9.23;7.85;;;20.40;72.00;;;;;;4153330;28;20042;-56
2021/05/04 09:04:09;;;;;;;9.00;8.07;;;20.40;72.10;;;;;;4156822;28;20430;-55
2021/05/04 09:06:16;;;;;;;8.68;7.78;;;20.40;72.00;;;;;;4154915;28;20049;-54
2021/05/04 09:08:44;;;;;;;10.40;7.72;;;20.40;72.20;;;;;;4155956;28;20498;-57
2021/05/04 09:10:49;;;;;;;10.95;7.72;;;20.40;72.00;;;;;;4152527;28;20488;-58
2021/05/04 09:12:58;;;;;;;9.75;7.60;;;20.40;72.00;;;;;;4159957;28;20435;-59
2021/05/04 09:15:06;;;;;;;8.52;7.63;;;20.30;72.00;;;;;;4157096;28;20130;-59
2021/05/04 09:17:25;;;;;;;8.02;7.22;;;20.30;72.00;;;;;;4150521;28;20767;-58
2021/05/04 09:21:36;;;;;;;8.65;7.65;;;20.30;72.10;;;;;;4147848;28;20597;-58
2021/05/04 09:23:43;;;;;;;8.30;6.97;;;20.30;72.00;;;;;;4146522;28;20122;-58
2021/05/04 09:25:45;;;;;;;22.55;7.28;;;20.30;72.00;;;;;;4164381;28;20416;-56
2021/05/04 09:28:03;;;;;;;9.25;7.38;;;20.30;72.00;;;;;;4154619;28;20115;-58
2021/05/04 09:30:12;;;;;;;8.50;7.60;;;20.40;71.80;;;;;;4160457;28;20077;-57
2021/05/04 09:32:32;;;;;;;9.43;8.35;;;20.30;71.40;;;;;;4150719;28;20105;-57
2021/05/04 09:34:47;;;;;;;9.23;8.23;;;20.30;71.10;;;;;;4152090;28;20478;-59
2021/05/04 09:36:52;;;;;;;9.23;7.90;;;20.40;71.10;;;;;;4159182;28;20053;-59
2021/05/04 09:38:55;;;;;;;9.65;8.23;;;20.30;70.90;;;;;;4156973;28;20576;-58
2021/05/04 09:40:57;;;;;;;9.48;8.43;;;20.30;70.90;;;;;;4160008;28;20432;-57
2021/05/04 09:43:05;;;;;;;9.15;7.50;;;20.30;70.90;;;;;;4157760;28;20364;-54
2021/05/04 09:45:08;;;;;;;13.15;8.27;;;20.30;71.00;;;;;;4157632;28;20458;-54
2021/05/04 09:47:13;;;;;;;8.57;7.13;;;20.30;71.90;;;;;;4155142;28;20037;-56
2021/05/04 09:49:26;;;;;;;8.13;6.85;;;20.30;72.40;;;;;;4157634;28;20028;-56
2021/05/04 09:51:28;;;;;;;9.85;6.70;;;20.30;72.70;;;;;;4153093;28;20064;-54
2021/05/04 09:53:41;;;;;;;7.75;6.95;;;20.30;72.80;;;;;;4160074;28;20040;-52
2021/05/04 09:56:01;;;;;;;7.88;6.57;;;20.30;72.80;;;;;;4150369;28;20033;-57
2021/05/04 09:58:09;;;;;;;7.97;7.10;;;20.30;72.80;;;;;;4156599;28;20025;-56
2021/05/04 10:00:17;;;;;;;7.10;6.07;;;20.30;72.80;;;;;;4152815;28;20041;-54
2021/05/04 10:02:22;;;;;;;6.85;6.13;;;20.30;72.70;;;;;;4155817;28;20037;-55
2021/05/04 10:04:24;;;;;;;7.80;6.50;;;20.30;72.70;;;;;;4153607;28;20030;-57
2021/05/04 10:06:26;;;;;;;8.00;6.22;;;20.30;72.80;;;;;;4154174;28;20040;-57
2021/05/04 10:08:31;;;;;;;6.35;5.72;;;20.30;72.90;;;;;;4154279;28;20118;-56
2021/05/04 10:10:34;;;;;;;7.63;6.50;;;20.40;72.90;;;;;;4151439;28;20498;-55
2021/05/04 10:12:40;;;;;;;12.38;6.05;;;20.40;72.90;;;;;;4153455;28;20033;-52
2021/05/04 10:14:43;;;;;;;6.05;5.45;;;20.40;72.70;;;;;;4156120;28;20795;-50
2021/05/04 10:16:45;;;;;;;7.38;6.05;;;20.40;72.70;;;;;;4153204;28;20124;-54
2021/05/04 10:18:47;;;;;;;6.90;5.22;;;20.40;72.50;;;;;;4149392;28;20055;-55
2021/05/04 10:20:51;;;;;;;8.05;5.68;;;20.40;72.40;;;;;;4155618;28;20441;-48
2021/05/04 10:22:55;;;;;;;10.27;5.53;;;20.40;72.50;;;;;;4156084;28;20036;-52
2021/05/04 10:24:57;;;;;;;;;;;20.40;72.50;;;;;;4158879;28;20120;-57
2021/05/04 10:27:03;;;;;;;8.00;5.25;;;20.40;72.50;;;;;;4156634;28;19916;-57
2021/05/04 10:29:08;;;;;;;10.05;5.95;;;20.40;72.50;;;;;;4153866;28;20033;-53
2021/05/04 10:31:12;;;;;;;6.10;5.50;;;20.40;72.30;;;;;;4157435;28;20505;-51
2021/05/04 10:33:40;;;;;;;6.75;5.25;;;20.40;72.40;;;;;;4156109;28;20041;-53